createdAt,value
2022-10-31T00:00:12.017Z,313.56
2022-10-31T00:01:11.937Z,313.80
2022-10-31T00:02:12.006Z,313.80
2022-10-31T00:03:11.919Z,313.83
2022-10-31T00:04:11.911Z,314.62
2022-10-31T00:05:11.889Z,314.15
2022-10-31T00:06:11.896Z,313.84
2022-10-31T00:07:11.899Z,313.73
2022-10-31T00:08:11.864Z,313.88
2022-10-31T00:09:11.851Z,313.47
2022-10-31T00:10:11.861Z,313.71
2022-10-31T00:11:11.836Z,313.60
2022-10-31T00:12:11.836Z,313.63
2022-10-31T00:13:11.850Z,313.63
2022-10-31T00:14:11.813Z,312.93
2022-10-31T00:15:11.782Z,313.31
2022-10-31T00:16:11.781Z,313.25
2022-10-31T00:17:11.758Z,312.06
2022-10-31T00:18:11.771Z,312.83
2022-10-31T00:19:11.745Z,313.58
2022-10-31T00:20:11.749Z,312.80
2022-10-31T00:21:11.717Z,312.85
2022-10-31T00:22:11.724Z,312.23
2022-10-31T00:23:11.698Z,313.11
2022-10-31T00:24:11.703Z,312.81
2022-10-31T00:25:11.680Z,312.11
2022-10-31T00:26:11.670Z,312.36
2022-10-31T00:27:11.647Z,312.39
2022-10-31T00:28:11.694Z,312.58
2022-10-31T00:29:11.641Z,312.48
2022-10-31T00:30:11.619Z,313.00
2022-10-31T00:31:11.630Z,312.26
2022-10-31T00:32:11.622Z,312.23
2022-10-31T00:33:11.583Z,313.67
2022-10-31T00:34:11.569Z,313.28
2022-10-31T00:35:11.571Z,312.70
2022-10-31T00:36:11.554Z,312.47
2022-10-31T00:37:11.558Z,311.99
2022-10-31T00:38:11.538Z,312.95
2022-10-31T00:39:11.524Z,312.86
2022-10-31T00:40:11.503Z,312.60
2022-10-31T00:41:11.503Z,313.44
2022-10-31T00:42:11.492Z,312.57
2022-10-31T00:44:11.457Z,312.91
2022-10-31T00:45:11.452Z,312.97
2022-10-31T00:46:11.449Z,312.31
2022-10-31T00:47:11.422Z,312.35
2022-10-31T00:48:11.424Z,313.13
2022-10-31T00:49:11.439Z,313.63
2022-10-31T00:50:11.393Z,312.41
2022-10-31T00:51:11.382Z,312.84
2022-10-31T00:52:11.389Z,312.71
2022-10-31T00:53:11.356Z,312.59
2022-10-31T00:54:11.363Z,312.58
2022-10-31T00:55:11.336Z,312.70
2022-10-31T00:56:11.323Z,312.35
2022-10-31T00:57:11.324Z,312.40
2022-10-31T00:58:11.385Z,312.50
2022-10-31T00:59:11.290Z,312.40
2022-10-31T01:00:11.282Z,312.84
2022-10-31T01:01:11.315Z,311.55
2022-10-31T01:02:11.472Z,312.39
2022-10-31T01:03:11.250Z,313.01
2022-10-31T01:04:11.266Z,312.11
2022-10-31T01:05:11.232Z,312.51
2022-10-31T01:06:11.239Z,312.60
2022-10-31T01:07:11.858Z,312.28
2022-10-31T01:08:11.406Z,312.68
2022-10-31T01:09:11.196Z,312.47
2022-10-31T01:10:11.174Z,313.04
2022-10-31T01:11:11.161Z,312.33
2022-10-31T01:12:11.146Z,312.93
2022-10-31T01:13:11.214Z,312.54
2022-10-31T01:14:11.134Z,311.98
2022-10-31T01:15:11.122Z,312.08
2022-10-31T01:16:11.107Z,312.32
2022-10-31T01:17:11.104Z,313.03
2022-10-31T01:18:11.088Z,313.40
2022-10-31T01:19:11.089Z,311.86
2022-10-31T01:20:11.055Z,312.12
2022-10-31T01:21:11.056Z,312.41
2022-10-31T01:22:11.040Z,312.56
2022-10-31T01:23:11.024Z,311.81
2022-10-31T01:24:11.029Z,311.80
2022-10-31T01:25:11.003Z,312.10
2022-10-31T01:26:10.990Z,312.29
2022-10-31T01:27:10.974Z,311.30
2022-10-31T01:28:11.048Z,312.43
2022-10-31T01:29:10.982Z,311.79
2022-10-31T01:30:10.937Z,311.55
2022-10-31T01:31:10.937Z,311.63
2022-10-31T01:32:10.922Z,312.63
2022-10-31T01:33:10.911Z,313.09
2022-10-31T01:34:10.892Z,312.56
2022-10-31T01:35:10.897Z,312.30
2022-10-31T01:36:10.874Z,312.22
2022-10-31T01:37:10.873Z,312.23
2022-10-31T01:38:10.862Z,312.84
2022-10-31T01:39:10.871Z,312.26
2022-10-31T01:40:10.851Z,312.53
2022-10-31T01:41:10.830Z,313.09
2022-10-31T01:42:10.816Z,312.37
2022-10-31T01:43:10.829Z,312.15
2022-10-31T01:44:10.795Z,312.51
2022-10-31T01:45:10.807Z,312.20
2022-10-31T01:46:10.769Z,313.15
2022-10-31T01:47:10.759Z,312.31
2022-10-31T01:48:10.750Z,311.85
2022-10-31T01:49:10.775Z,311.95
2022-10-31T01:50:10.731Z,312.37
2022-10-31T01:51:10.726Z,312.65
2022-10-31T01:52:10.689Z,312.61
2022-10-31T01:53:10.689Z,311.97
2022-10-31T01:54:10.668Z,312.15
2022-10-31T01:55:10.685Z,312.32
2022-10-31T01:56:10.681Z,312.31
2022-10-31T01:57:10.655Z,311.74
2022-10-31T01:58:10.696Z,312.00
2022-10-31T01:59:10.631Z,311.94
2022-10-31T02:00:10.638Z,310.94
2022-10-31T02:01:10.728Z,312.84
2022-10-31T02:02:10.766Z,312.31
2022-10-31T02:03:10.596Z,312.26
2022-10-31T02:04:10.570Z,312.25
2022-10-31T02:05:10.559Z,312.36
2022-10-31T02:06:10.565Z,312.30
2022-10-31T02:07:10.553Z,312.40
2022-10-31T02:08:10.525Z,312.46
2022-10-31T02:09:10.530Z,311.88
2022-10-31T02:10:10.538Z,312.06
2022-10-31T02:11:10.504Z,311.86
2022-10-31T02:12:10.480Z,312.03
2022-10-31T02:13:10.471Z,312.55
2022-10-31T02:14:10.495Z,312.18
2022-10-31T02:15:10.455Z,312.16
2022-10-31T02:16:10.435Z,312.16
2022-10-31T02:17:10.435Z,312.48
2022-10-31T02:18:10.413Z,312.25
2022-10-31T02:19:10.445Z,311.64
2022-10-31T02:20:10.456Z,311.59
2022-10-31T02:21:10.377Z,311.65
2022-10-31T02:22:10.370Z,310.90
2022-10-31T02:23:10.368Z,311.14
2022-10-31T02:24:10.345Z,310.86
2022-10-31T02:25:10.343Z,311.19
2022-10-31T02:26:10.358Z,311.49
2022-10-31T02:27:10.404Z,311.12
2022-10-31T02:28:10.323Z,311.86
2022-10-31T02:29:10.331Z,311.18
2022-10-31T02:30:10.283Z,311.57
2022-10-31T02:31:10.281Z,311.35
2022-10-31T02:32:10.253Z,311.40
2022-10-31T02:33:10.254Z,311.59
2022-10-31T02:34:10.238Z,311.54
2022-10-31T02:35:10.221Z,311.69
2022-10-31T02:36:10.209Z,311.30
2022-10-31T02:37:10.218Z,311.72
2022-10-31T02:38:10.188Z,311.82
2022-10-31T02:39:10.197Z,311.80
2022-10-31T02:40:10.179Z,311.76
2022-10-31T02:41:10.155Z,311.47
2022-10-31T02:42:10.144Z,312.11
2022-10-31T02:43:10.214Z,312.14
2022-10-31T02:44:10.131Z,311.57
2022-10-31T02:45:10.118Z,313.17
2022-10-31T02:46:10.102Z,312.90
2022-10-31T02:47:10.091Z,312.14
2022-10-31T02:48:10.070Z,312.02
2022-10-31T02:49:10.070Z,312.36
2022-10-31T02:50:10.062Z,312.27
2022-10-31T02:51:10.052Z,312.15
2022-10-31T02:52:10.034Z,312.28
2022-10-31T02:53:10.027Z,311.86
2022-10-31T02:54:10.829Z,311.97
2022-10-31T02:55:10.011Z,312.02
2022-10-31T02:56:09.985Z,312.16
2022-10-31T02:57:09.978Z,312.67
2022-10-31T02:58:09.993Z,312.13
2022-10-31T02:59:09.975Z,312.31
2022-10-31T03:00:09.995Z,312.70
2022-10-31T03:01:10.089Z,311.57
2022-10-31T03:02:10.097Z,312.03
2022-10-31T03:03:09.910Z,311.98
2022-10-31T03:04:09.928Z,312.92
2022-10-31T03:05:09.895Z,311.92
2022-10-31T03:06:09.888Z,311.39
2022-10-31T03:07:09.866Z,311.98
2022-10-31T03:08:09.859Z,311.54
2022-10-31T03:09:09.851Z,311.56
2022-10-31T03:10:09.852Z,311.75
2022-10-31T03:11:09.819Z,311.95
2022-10-31T03:12:09.809Z,311.39
2022-10-31T03:13:09.867Z,311.92
2022-10-31T03:14:09.788Z,311.59
2022-10-31T03:15:09.778Z,311.01
2022-10-31T03:16:09.780Z,311.20
2022-10-31T03:17:09.775Z,311.48
2022-10-31T03:18:09.761Z,311.74
2022-10-31T03:19:09.757Z,311.49
2022-10-31T03:20:09.736Z,311.81
2022-10-31T03:21:09.743Z,312.27
2022-10-31T03:22:09.709Z,312.03
2022-10-31T03:23:09.704Z,311.92
2022-10-31T03:24:09.692Z,311.31
2022-10-31T03:25:09.694Z,311.31
2022-10-31T03:26:09.664Z,311.20
2022-10-31T03:27:09.678Z,310.95
2022-10-31T03:28:09.661Z,311.77
2022-10-31T03:29:09.628Z,312.46
2022-10-31T03:30:09.623Z,311.65
2022-10-31T03:31:09.601Z,312.11
2022-10-31T03:32:09.591Z,312.15
2022-10-31T03:33:09.589Z,311.60
2022-10-31T03:34:09.577Z,312.20
2022-10-31T03:35:09.561Z,311.34
2022-10-31T03:36:09.595Z,311.56
2022-10-31T03:37:09.533Z,311.73
2022-10-31T03:38:09.524Z,311.80
2022-10-31T03:39:09.531Z,311.62
2022-10-31T03:40:09.506Z,311.55
2022-10-31T03:41:09.498Z,311.34
2022-10-31T03:42:09.494Z,312.35
2022-10-31T03:43:09.526Z,313.03
2022-10-31T03:44:09.501Z,311.39
2022-10-31T03:45:09.452Z,311.24
2022-10-31T03:46:09.438Z,311.28
2022-10-31T03:47:09.442Z,311.40
2022-10-31T03:48:09.420Z,311.60
2022-10-31T03:49:09.424Z,311.60
2022-10-31T03:50:09.394Z,311.76
2022-10-31T03:51:09.383Z,311.57
2022-10-31T03:52:09.383Z,312.27
2022-10-31T03:53:09.372Z,311.95
2022-10-31T03:54:09.351Z,311.50
2022-10-31T03:55:09.366Z,311.43
2022-10-31T03:56:09.327Z,312.10
2022-10-31T03:57:09.327Z,311.46
2022-10-31T03:58:09.390Z,311.76
2022-10-31T03:59:09.299Z,311.21
2022-10-31T04:00:09.287Z,311.70
2022-10-31T04:01:09.398Z,311.44
2022-10-31T04:02:09.443Z,311.65
2022-10-31T04:03:09.267Z,311.58
2022-10-31T04:04:09.254Z,311.80
2022-10-31T04:05:09.229Z,311.67
2022-10-31T04:06:09.215Z,311.29
2022-10-31T04:07:09.208Z,311.48
2022-10-31T04:08:09.195Z,310.69
2022-10-31T04:09:09.195Z,311.37
2022-10-31T04:10:09.173Z,311.40
2022-10-31T04:11:09.173Z,311.66
2022-10-31T04:12:09.152Z,312.39
2022-10-31T04:13:09.227Z,311.78
2022-10-31T04:14:09.119Z,311.30
2022-10-31T04:15:09.136Z,311.88
2022-10-31T04:16:12.652Z,311.32
2022-10-31T04:17:10.097Z,311.20
2022-10-31T04:18:09.082Z,311.76
2022-10-31T04:19:09.072Z,311.93
2022-10-31T04:20:09.109Z,311.66
2022-10-31T04:21:09.051Z,311.93
2022-10-31T04:22:09.048Z,311.63
2022-10-31T04:23:13.826Z,311.20
2022-10-31T04:24:10.024Z,311.02
2022-10-31T04:25:09.016Z,311.51
2022-10-31T04:26:09.014Z,311.91
2022-10-31T04:27:08.989Z,312.13
2022-10-31T04:28:09.106Z,312.21
2022-10-31T04:29:08.957Z,311.69
2022-10-31T04:30:08.964Z,311.72
2022-10-31T04:31:08.947Z,311.86
2022-10-31T04:32:08.949Z,311.83
2022-10-31T04:33:08.973Z,311.51
2022-10-31T04:34:08.907Z,312.17
2022-10-31T04:35:08.896Z,310.90
2022-10-31T04:36:08.887Z,311.79
2022-10-31T04:37:08.890Z,311.13
2022-10-31T04:38:08.875Z,311.55
2022-10-31T04:39:08.856Z,311.03
2022-10-31T04:40:08.841Z,311.49
2022-10-31T04:41:08.833Z,312.18
2022-10-31T04:42:08.811Z,312.05
2022-10-31T04:43:08.952Z,311.61
2022-10-31T04:44:08.798Z,311.96
2022-10-31T04:45:08.787Z,311.87
2022-10-31T04:46:08.770Z,312.01
2022-10-31T04:47:08.762Z,311.68
2022-10-31T04:48:08.757Z,312.19
2022-10-31T04:49:08.756Z,312.03
2022-10-31T04:50:08.727Z,311.88
2022-10-31T04:51:08.718Z,311.77
2022-10-31T04:52:08.715Z,311.40
2022-10-31T04:53:08.708Z,311.81
2022-10-31T04:54:08.704Z,312.18
2022-10-31T04:55:08.696Z,312.79
2022-10-31T04:56:08.674Z,312.77
2022-10-31T04:57:08.658Z,311.78
2022-10-31T04:58:08.713Z,311.80
2022-10-31T04:59:08.632Z,311.65
2022-10-31T05:00:08.688Z,312.02
2022-10-31T05:01:08.734Z,311.37
2022-10-31T05:02:08.690Z,311.71
2022-10-31T05:03:08.579Z,311.99
2022-10-31T05:04:08.576Z,311.73
2022-10-31T05:05:08.575Z,310.71
2022-10-31T05:06:08.562Z,311.85
2022-10-31T05:07:08.539Z,311.38
2022-10-31T05:08:08.527Z,311.45
2022-10-31T05:09:08.526Z,311.08
2022-10-31T05:10:08.548Z,311.79
2022-10-31T05:11:08.496Z,312.27
2022-10-31T05:12:08.503Z,311.80
2022-10-31T05:13:08.559Z,312.09
2022-10-31T05:14:08.469Z,312.00
2022-10-31T05:15:08.468Z,311.92
2022-10-31T05:16:08.439Z,311.67
2022-10-31T05:17:08.430Z,311.93
2022-10-31T05:18:08.443Z,311.99
2022-10-31T05:19:08.418Z,311.84
2022-10-31T05:20:08.406Z,312.03
2022-10-31T05:21:08.412Z,311.61
2022-10-31T05:22:08.382Z,311.63
2022-10-31T05:23:08.984Z,311.77
2022-10-31T05:24:08.430Z,311.89
2022-10-31T05:25:08.354Z,312.27
2022-10-31T05:26:08.342Z,312.20
2022-10-31T05:27:08.318Z,311.73
2022-10-31T05:28:08.332Z,311.46
2022-10-31T05:29:08.302Z,311.72
2022-10-31T05:30:08.300Z,311.91
2022-10-31T05:31:08.288Z,311.76
2022-10-31T05:32:08.268Z,311.60
2022-10-31T05:33:08.253Z,311.78
2022-10-31T05:34:08.251Z,312.34
2022-10-31T05:35:08.238Z,311.62
2022-10-31T05:36:08.243Z,312.59
2022-10-31T05:37:08.220Z,312.32
2022-10-31T05:38:08.209Z,311.38
2022-10-31T05:39:08.190Z,312.47
2022-10-31T05:40:08.653Z,313.13
2022-10-31T05:41:09.471Z,312.50
2022-10-31T05:42:08.151Z,311.91
2022-10-31T05:43:08.144Z,312.21
2022-10-31T05:44:08.129Z,312.61
2022-10-31T05:45:08.470Z,312.48
2022-10-31T05:46:08.109Z,312.10
2022-10-31T05:47:08.140Z,312.35
2022-10-31T05:48:08.089Z,312.09
2022-10-31T05:49:08.077Z,312.32
2022-10-31T05:50:08.079Z,312.49
2022-10-31T05:51:08.051Z,312.31
2022-10-31T05:52:08.057Z,311.93
2022-10-31T05:53:08.037Z,312.02
2022-10-31T05:54:10.753Z,312.39
2022-10-31T05:55:09.025Z,312.98
2022-10-31T05:56:08.009Z,312.52
2022-10-31T05:57:07.987Z,312.40
2022-10-31T05:58:07.998Z,312.47
2022-10-31T05:59:07.975Z,312.19
2022-10-31T06:00:07.966Z,311.90
2022-10-31T06:01:08.009Z,311.53
2022-10-31T06:02:07.955Z,312.19
2022-10-31T06:04:07.912Z,312.12
2022-10-31T06:05:07.951Z,312.61
2022-10-31T06:06:07.891Z,311.67
2022-10-31T06:07:07.871Z,312.39
2022-10-31T06:08:07.878Z,312.17
2022-10-31T06:09:07.868Z,312.39
2022-10-31T06:10:08.503Z,312.95
2022-10-31T06:11:07.826Z,312.95
2022-10-31T06:12:07.821Z,311.90
2022-10-31T06:13:07.818Z,312.48
2022-10-31T06:14:07.803Z,312.79
2022-10-31T06:15:07.789Z,312.26
2022-10-31T06:16:07.800Z,312.14
2022-10-31T06:17:07.764Z,312.97
2022-10-31T06:18:07.749Z,312.40
2022-10-31T06:19:07.746Z,313.09
2022-10-31T06:20:07.731Z,313.08
2022-10-31T06:21:07.738Z,312.49
2022-10-31T06:22:07.707Z,312.74
2022-10-31T06:23:07.697Z,312.82
2022-10-31T06:24:07.687Z,312.49
2022-10-31T06:25:07.676Z,312.54
2022-10-31T06:26:07.672Z,312.54
2022-10-31T06:27:07.679Z,313.92
2022-10-31T06:28:07.658Z,313.13
2022-10-31T06:29:07.642Z,312.72
2022-10-31T06:30:07.621Z,312.96
2022-10-31T06:31:07.617Z,313.26
2022-10-31T06:32:07.616Z,313.03
2022-10-31T06:33:07.589Z,312.96
2022-10-31T06:34:07.579Z,312.96
2022-10-31T06:35:07.572Z,313.50
2022-10-31T06:36:07.551Z,313.77
2022-10-31T06:37:07.553Z,313.56
2022-10-31T06:38:07.552Z,313.30
2022-10-31T06:39:07.532Z,313.44
2022-10-31T06:40:07.515Z,313.35
2022-10-31T06:41:07.495Z,313.90
2022-10-31T06:42:07.483Z,313.73
2022-10-31T06:43:07.486Z,313.83
2022-10-31T06:44:09.021Z,313.66
2022-10-31T06:45:07.461Z,313.69
2022-10-31T06:46:07.455Z,313.98
2022-10-31T06:47:07.439Z,313.62
2022-10-31T06:48:22.977Z,313.59
2022-10-31T06:49:08.411Z,313.65
2022-10-31T06:50:07.395Z,313.80
2022-10-31T06:51:07.382Z,313.50
2022-10-31T06:52:07.383Z,313.01
2022-10-31T06:53:07.468Z,312.76
2022-10-31T06:54:07.351Z,312.87
2022-10-31T06:55:07.342Z,312.42
2022-10-31T06:56:07.327Z,312.08
2022-10-31T06:57:07.321Z,312.58
2022-10-31T06:58:07.530Z,313.53
2022-10-31T06:59:07.301Z,313.05
2022-10-31T07:00:07.288Z,312.77
2022-10-31T07:01:07.431Z,313.40
2022-10-31T07:02:07.461Z,313.30
2022-10-31T07:03:07.249Z,313.15
2022-10-31T07:04:07.251Z,313.05
2022-10-31T07:05:07.238Z,312.60
2022-10-31T07:06:07.217Z,312.88
2022-10-31T07:07:07.210Z,312.39
2022-10-31T07:08:07.233Z,312.82
2022-10-31T07:09:07.178Z,312.58
2022-10-31T07:10:07.210Z,311.81
2022-10-31T07:11:07.180Z,313.13
2022-10-31T07:12:07.150Z,313.59
2022-10-31T07:13:07.141Z,313.18
2022-10-31T07:14:07.150Z,313.77
2022-10-31T07:15:07.124Z,313.24
2022-10-31T07:16:07.109Z,313.16
2022-10-31T07:17:07.125Z,313.28
2022-10-31T07:18:07.088Z,312.26
2022-10-31T07:19:07.082Z,312.25
2022-10-31T07:20:07.128Z,312.40
2022-10-31T07:21:07.066Z,312.76
2022-10-31T07:22:07.073Z,313.32
2022-10-31T07:23:07.219Z,312.50
2022-10-31T07:24:07.068Z,312.55
2022-10-31T07:25:07.004Z,312.91
2022-10-31T07:26:07.012Z,312.92
2022-10-31T07:27:07.005Z,312.80
2022-10-31T07:28:06.971Z,313.19
2022-10-31T07:29:06.962Z,312.16
2022-10-31T07:30:06.962Z,312.00
2022-10-31T07:31:06.984Z,312.32
2022-10-31T07:32:06.927Z,312.32
2022-10-31T07:33:06.917Z,310.64
2022-10-31T07:34:06.908Z,311.64
2022-10-31T07:35:06.917Z,311.58
2022-10-31T07:36:06.893Z,311.96
2022-10-31T07:37:06.923Z,311.67
2022-10-31T07:38:06.862Z,310.89
2022-10-31T07:39:06.866Z,310.80
2022-10-31T07:40:06.853Z,310.46
2022-10-31T07:41:06.845Z,311.08
2022-10-31T07:42:06.829Z,311.50
2022-10-31T07:43:11.659Z,311.22
2022-10-31T07:44:07.795Z,311.16
2022-10-31T07:45:06.788Z,311.39
2022-10-31T07:46:06.776Z,310.54
2022-10-31T07:47:06.765Z,310.26
2022-10-31T07:48:06.755Z,311.78
2022-10-31T07:49:06.752Z,310.49
2022-10-31T07:50:06.736Z,311.40
2022-10-31T07:51:06.728Z,309.18
2022-10-31T07:52:06.715Z,310.37
2022-10-31T07:53:06.701Z,310.51
2022-10-31T07:54:06.703Z,308.99
2022-10-31T07:55:06.676Z,308.88
2022-10-31T07:56:06.682Z,308.69
2022-10-31T07:57:06.664Z,308.79
2022-10-31T07:58:06.652Z,307.90
2022-10-31T07:59:06.637Z,309.19
2022-10-31T08:00:06.629Z,308.81
2022-10-31T08:01:06.811Z,308.32
2022-10-31T08:02:06.638Z,306.95
2022-10-31T08:03:06.590Z,308.52
2022-10-31T08:04:06.581Z,308.32
2022-10-31T08:05:06.578Z,307.85
2022-10-31T08:06:06.564Z,307.32
2022-10-31T08:07:06.546Z,307.15
2022-10-31T08:08:06.536Z,308.05
2022-10-31T08:09:06.532Z,306.83
2022-10-31T08:10:06.518Z,306.81
2022-10-31T08:11:06.506Z,306.91
2022-10-31T08:12:06.502Z,307.20
2022-10-31T08:13:06.471Z,306.18
2022-10-31T08:14:06.472Z,308.00
2022-10-31T08:15:07.435Z,308.38
2022-10-31T08:16:06.458Z,307.60
2022-10-31T08:17:06.437Z,308.10
2022-10-31T08:18:06.454Z,307.77
2022-10-31T08:19:06.409Z,308.20
2022-10-31T08:20:06.409Z,307.54
2022-10-31T08:21:06.389Z,308.92
2022-10-31T08:22:06.392Z,307.41
2022-10-31T08:23:06.357Z,308.98
2022-10-31T08:24:06.348Z,307.87
2022-10-31T08:25:06.345Z,308.51
2022-10-31T08:26:06.348Z,308.99
2022-10-31T08:27:06.317Z,308.99
2022-10-31T08:28:06.311Z,308.98
2022-10-31T08:29:06.299Z,309.34
2022-10-31T08:30:06.296Z,309.86
2022-10-31T08:31:06.307Z,308.50
2022-10-31T08:32:06.299Z,308.99
2022-10-31T08:33:06.264Z,309.16
2022-10-31T08:34:06.249Z,309.99
2022-10-31T08:35:06.232Z,309.24
2022-10-31T08:36:06.220Z,309.24
2022-10-31T08:37:06.216Z,309.66
2022-10-31T08:38:06.214Z,309.70
2022-10-31T08:39:06.214Z,310.10
2022-10-31T08:40:06.179Z,308.71
2022-10-31T08:41:06.176Z,309.68
2022-10-31T08:42:06.157Z,310.46
2022-10-31T08:43:06.173Z,310.24
2022-10-31T08:44:06.140Z,310.20
2022-10-31T08:45:06.126Z,311.67
2022-10-31T08:46:06.118Z,310.79
2022-10-31T08:47:06.103Z,311.08
2022-10-31T08:48:06.088Z,310.53
2022-10-31T08:49:06.088Z,310.73
2022-10-31T08:50:06.066Z,310.40
2022-10-31T08:51:06.048Z,310.75
2022-10-31T08:52:08.541Z,311.30
2022-10-31T08:53:07.032Z,310.95
2022-10-31T08:54:06.028Z,312.03
2022-10-31T08:55:06.013Z,311.62
2022-10-31T08:56:05.997Z,311.25
2022-10-31T08:57:05.986Z,312.18
2022-10-31T08:58:06.012Z,312.71
2022-10-31T08:59:05.974Z,311.79
2022-10-31T09:00:05.961Z,311.78
2022-10-31T09:01:06.111Z,312.32
2022-10-31T09:02:06.017Z,310.98
2022-10-31T09:03:05.918Z,311.24
2022-10-31T09:04:05.924Z,312.24
2022-10-31T09:05:05.908Z,311.73
2022-10-31T09:06:05.900Z,312.25
2022-10-31T09:07:21.766Z,312.22
2022-10-31T09:08:09.445Z,311.82
2022-10-31T09:09:05.870Z,311.48
2022-10-31T09:10:05.858Z,310.77
2022-10-31T09:11:05.835Z,312.16
2022-10-31T09:12:05.831Z,310.16
2022-10-31T09:13:05.849Z,311.67
2022-10-31T09:14:05.827Z,311.57
2022-10-31T09:15:05.803Z,312.55
2022-10-31T09:16:05.799Z,311.77
2022-10-31T09:17:05.783Z,310.11
2022-10-31T09:18:05.757Z,310.71
2022-10-31T09:19:11.094Z,310.50
2022-10-31T09:20:06.738Z,310.68
2022-10-31T09:21:05.754Z,310.56
2022-10-31T09:22:05.710Z,310.62
2022-10-31T09:23:05.702Z,309.96
2022-10-31T09:24:05.687Z,311.17
2022-10-31T09:25:05.676Z,310.49
2022-10-31T09:26:05.686Z,310.55
2022-10-31T09:27:05.655Z,308.99
2022-10-31T09:28:05.647Z,310.74
2022-10-31T09:29:05.633Z,310.12
2022-10-31T09:30:05.631Z,311.21
2022-10-31T09:31:06.040Z,308.91
2022-10-31T09:32:05.605Z,310.51
2022-10-31T09:33:05.584Z,310.80
2022-10-31T09:34:05.580Z,310.02
2022-10-31T09:35:05.607Z,310.72
2022-10-31T09:36:05.574Z,310.12
2022-10-31T09:37:05.545Z,310.60
2022-10-31T09:38:05.537Z,309.70
2022-10-31T09:39:05.523Z,312.03
2022-10-31T09:40:05.515Z,310.52
2022-10-31T09:41:05.508Z,310.07
2022-10-31T09:42:05.485Z,309.67
2022-10-31T09:43:05.470Z,310.28
2022-10-31T09:44:05.500Z,311.55
2022-10-31T09:45:05.484Z,311.47
2022-10-31T09:46:05.454Z,310.45
2022-10-31T09:47:05.444Z,310.12
2022-10-31T09:48:05.422Z,309.04
2022-10-31T09:49:05.480Z,309.66
2022-10-31T09:50:05.399Z,309.30
2022-10-31T09:51:05.385Z,310.14
2022-10-31T09:52:05.438Z,310.57
2022-10-31T09:53:05.368Z,310.68
2022-10-31T09:54:05.357Z,309.99
2022-10-31T09:55:05.343Z,309.66
2022-10-31T09:56:05.332Z,310.17
2022-10-31T09:57:05.326Z,310.08
2022-10-31T09:58:05.304Z,309.78
2022-10-31T09:59:05.308Z,310.61
2022-10-31T10:00:05.289Z,311.10
2022-10-31T10:01:05.452Z,311.45
2022-10-31T10:02:05.365Z,312.60
2022-10-31T10:03:05.282Z,311.39
2022-10-31T10:04:05.244Z,311.06
2022-10-31T10:05:05.236Z,311.28
2022-10-31T10:06:05.229Z,311.02
2022-10-31T10:07:05.205Z,310.91
2022-10-31T10:08:05.203Z,309.72
2022-10-31T10:09:05.186Z,311.90
2022-10-31T10:10:05.170Z,311.71
2022-10-31T10:11:05.170Z,310.99
2022-10-31T10:12:05.152Z,311.28
2022-10-31T10:13:08.294Z,311.32
2022-10-31T10:14:05.128Z,310.71
2022-10-31T10:15:05.117Z,310.70
2022-10-31T10:16:05.112Z,311.37
2022-10-31T10:17:05.099Z,310.61
2022-10-31T10:18:05.099Z,310.75
2022-10-31T10:19:05.074Z,311.65
2022-10-31T10:20:05.060Z,310.62
2022-10-31T10:21:05.075Z,310.97
2022-10-31T10:22:05.038Z,309.74
2022-10-31T10:23:05.037Z,310.00
2022-10-31T10:24:05.026Z,310.41
2022-10-31T10:25:05.029Z,311.33
2022-10-31T10:26:10.218Z,309.85
2022-10-31T10:27:05.981Z,311.11
2022-10-31T10:28:04.972Z,310.54
2022-10-31T10:29:04.977Z,309.45
2022-10-31T10:30:04.984Z,310.52
2022-10-31T10:31:04.944Z,311.73
2022-10-31T10:32:04.940Z,311.88
2022-10-31T10:33:04.930Z,311.67
2022-10-31T10:34:04.906Z,311.65
2022-10-31T10:35:04.914Z,312.13
2022-10-31T10:36:04.879Z,311.07
2022-10-31T10:37:04.869Z,311.18
2022-10-31T10:38:04.868Z,311.84
2022-10-31T10:39:04.865Z,310.70
2022-10-31T10:40:04.880Z,310.96
2022-10-31T10:41:04.832Z,312.14
2022-10-31T10:42:04.828Z,311.64
2022-10-31T10:43:04.805Z,311.78
2022-10-31T10:44:04.791Z,312.64
2022-10-31T10:45:04.779Z,313.02
2022-10-31T10:46:07.763Z,311.23
2022-10-31T10:47:05.775Z,311.02
2022-10-31T10:48:04.745Z,310.52
2022-10-31T10:49:04.739Z,311.15
2022-10-31T10:50:04.724Z,311.53
2022-10-31T10:51:04.728Z,311.79
2022-10-31T10:52:20.106Z,311.70
2022-10-31T10:53:05.689Z,309.82
2022-10-31T10:54:09.549Z,311.42
2022-10-31T10:55:05.678Z,310.96
2022-10-31T10:56:04.679Z,311.81
2022-10-31T10:57:04.663Z,311.74
2022-10-31T10:58:05.005Z,310.75
2022-10-31T10:59:04.629Z,310.95
2022-10-31T11:00:04.615Z,312.03
2022-10-31T11:01:04.763Z,310.69
2022-10-31T11:02:04.605Z,311.93
2022-10-31T11:03:05.103Z,311.04
2022-10-31T11:04:04.566Z,310.78
2022-10-31T11:05:04.566Z,310.74
2022-10-31T11:06:04.592Z,311.41
2022-10-31T11:07:04.551Z,311.12
2022-10-31T11:08:05.508Z,310.97
2022-10-31T11:09:04.526Z,310.40
2022-10-31T11:10:04.509Z,311.09
2022-10-31T11:11:04.514Z,310.07
2022-10-31T11:12:04.484Z,310.71
2022-10-31T11:13:04.764Z,311.04
2022-10-31T11:14:04.461Z,310.54
2022-10-31T11:15:04.453Z,311.38
2022-10-31T11:16:04.438Z,310.75
2022-10-31T11:17:04.438Z,309.85
2022-10-31T11:18:04.428Z,309.45
2022-10-31T11:19:04.408Z,309.60
2022-10-31T11:20:04.393Z,310.10
2022-10-31T11:21:04.385Z,309.53
2022-10-31T11:22:05.071Z,310.08
2022-10-31T11:23:04.375Z,309.74
2022-10-31T11:24:04.356Z,309.75
2022-10-31T11:25:04.346Z,310.37
2022-10-31T11:26:05.012Z,308.81
2022-10-31T11:27:04.320Z,310.51
2022-10-31T11:28:04.320Z,310.83
2022-10-31T11:29:04.299Z,311.27
2022-10-31T11:30:04.302Z,309.88
2022-10-31T11:31:04.274Z,310.07
2022-10-31T11:32:04.264Z,310.10
2022-10-31T11:33:04.332Z,309.98
2022-10-31T11:34:04.268Z,307.20
2022-10-31T11:35:04.268Z,310.80
2022-10-31T11:36:04.218Z,311.30
2022-10-31T11:37:04.205Z,311.31
2022-10-31T11:38:04.424Z,311.06
2022-10-31T11:39:04.193Z,310.36
2022-10-31T11:40:04.196Z,310.72
2022-10-31T11:41:04.165Z,310.59
2022-10-31T11:42:08.783Z,310.28
2022-10-31T11:43:04.145Z,310.84
2022-10-31T11:44:04.155Z,311.19
2022-10-31T11:45:04.116Z,310.45
2022-10-31T11:46:04.104Z,309.90
2022-10-31T11:47:04.093Z,310.41
2022-10-31T11:48:04.503Z,311.14
2022-10-31T11:49:04.083Z,310.77
2022-10-31T11:50:04.062Z,310.53
2022-10-31T11:51:04.052Z,310.73
2022-10-31T11:52:04.055Z,310.82
2022-10-31T11:53:04.054Z,310.59
2022-10-31T11:54:04.020Z,311.05
2022-10-31T11:55:04.017Z,311.03
2022-10-31T11:56:03.997Z,310.15
2022-10-31T11:57:03.995Z,310.68
2022-10-31T11:58:04.272Z,311.78
2022-10-31T11:59:03.984Z,311.46
2022-10-31T12:00:03.969Z,311.18
2022-10-31T12:01:04.070Z,310.63
2022-10-31T12:02:04.099Z,311.58
2022-10-31T12:03:04.291Z,311.51
2022-10-31T12:04:03.901Z,310.35
2022-10-31T12:05:03.917Z,311.01
2022-10-31T12:06:03.888Z,311.24
2022-10-31T12:07:03.887Z,311.13
2022-10-31T12:08:04.789Z,311.36
2022-10-31T12:09:03.863Z,311.58
2022-10-31T12:10:03.875Z,312.01
2022-10-31T12:11:03.834Z,311.27
2022-10-31T12:12:03.821Z,310.67
2022-10-31T12:13:04.005Z,311.23
2022-10-31T12:14:04.354Z,312.14
2022-10-31T12:15:03.820Z,310.86
2022-10-31T12:16:03.810Z,310.78
2022-10-31T12:17:03.772Z,310.57
2022-10-31T12:18:03.762Z,311.15
2022-10-31T12:19:03.746Z,311.12
2022-10-31T12:20:04.110Z,311.44
2022-10-31T12:21:03.747Z,311.76
2022-10-31T12:22:03.722Z,312.18
2022-10-31T12:23:04.002Z,311.45
2022-10-31T12:24:03.688Z,311.86
2022-10-31T12:25:03.679Z,310.82
2022-10-31T12:26:03.671Z,311.65
2022-10-31T12:27:03.659Z,311.61
2022-10-31T12:28:03.645Z,311.12
2022-10-31T12:29:03.629Z,311.97
2022-10-31T12:30:03.630Z,308.84